sensor_id;sensor_type;location;lat;lon;timestamp;pressure;altitude;pressure_sealevel;temperature;humidity
64200;BME280;50516;52.272;5.136;2023-04-07T00:00:16;101465.00;;;9.34;100.00
64200;BME280;50516;52.272;5.136;2023-04-07T00:02:42;101469.88;;;9.49;100.00
64200;BME280;50516;52.272;5.136;2023-04-07T00:05:07;101469.81;;;9.44;99.68
64200;BME280;50516;52.272;5.136;2023-04-07T00:07:33;101468.63;;;9.40;99.74
64200;BME280;50516;52.272;5.136;2023-04-07T00:09:58;101466.66;;;9.35;99.70
64200;BME280;50516;52.272;5.136;2023-04-07T00:12:23;101467.13;;;9.49;100.00
64200;BME280;50516;52.272;5.136;2023-04-07T00:14:49;101475.53;;;9.59;100.00
64200;BME280;50516;52.272;5.136;2023-04-07T00:17:15;101476.03;;;9.56;99.16
64200;BME280;50516;52.272;5.136;2023-04-07T00:19:40;101476.72;;;9.46;99.76
64200;BME280;50516;52.272;5.136;2023-04-07T00:22:05;101471.13;;;9.41;99.62
64200;BME280;50516;52.272;5.136;2023-04-07T00:24:31;101463.75;;;9.42;100.00
64200;BME280;50516;52.272;5.136;2023-04-07T00:26:56;101463.97;;;9.57;99.42
64200;BME280;50516;52.272;5.136;2023-04-07T00:29:22;101468.13;;;9.43;99.14
64200;BME280;50516;52.272;5.136;2023-04-07T00:31:47;101473.03;;;9.41;99.54
64200;BME280;50516;52.272;5.136;2023-04-07T00:34:12;101472.13;;;9.52;99.95
64200;BME280;50516;52.272;5.136;2023-04-07T00:36:38;101474.78;;;9.47;99.68
64200;BME280;50516;52.272;5.136;2023-04-07T00:39:03;101470.78;;;9.38;99.98
64200;BME280;50516;52.272;5.136;2023-04-07T00:41:28;101471.97;;;9.42;99.62
64200;BME280;50516;52.272;5.136;2023-04-07T00:43:54;101473.72;;;9.48;99.71
64200;BME280;50516;52.272;5.136;2023-04-07T00:51:26;101478.44;;;9.53;99.35
64200;BME280;50516;52.272;5.136;2023-04-07T00:53:53;101473.13;;;9.63;99.15
64200;BME280;50516;52.272;5.136;2023-04-07T00:56:19;101475.94;;;9.51;98.84
64200;BME280;50516;52.272;5.136;2023-04-07T00:58:44;101476.59;;;9.41;99.06
64200;BME280;50516;52.272;5.136;2023-04-07T01:01:15;101473.13;;;9.63;98.80
64200;BME280;50516;52.272;5.136;2023-04-07T01:03:59;101473.28;;;9.73;98.25
64200;BME280;50516;52.272;5.136;2023-04-07T01:06:29;101481.75;;;9.72;98.24
64200;BME280;50516;52.272;5.136;2023-04-07T01:09:24;101475.91;;;9.85;97.37
64200;BME280;50516;52.272;5.136;2023-04-07T01:14:46;101485.22;;;9.84;97.50
64200;BME280;50516;52.272;5.136;2023-04-07T01:17:16;101477.06;;;9.89;97.29
64200;BME280;50516;52.272;5.136;2023-04-07T01:19:48;101479.56;;;9.91;97.05
64200;BME280;50516;52.272;5.136;2023-04-07T01:22:32;101472.88;;;10.03;96.52
64200;BME280;50516;52.272;5.136;2023-04-07T01:25:10;101478.56;;;9.97;96.38
64200;BME280;50516;52.272;5.136;2023-04-07T01:27:46;101476.00;;;9.90;96.60
64200;BME280;50516;52.272;5.136;2023-04-07T01:30:14;101476.94;;;9.79;96.73
64200;BME280;50516;52.272;5.136;2023-04-07T01:32:42;101475.75;;;9.75;97.31
64200;BME280;50516;52.272;5.136;2023-04-07T01:35:11;101464.78;;;9.75;97.00
64200;BME280;50516;52.272;5.136;2023-04-07T01:37:37;101471.44;;;9.79;97.55
64200;BME280;50516;52.272;5.136;2023-04-07T01:40:04;101472.44;;;9.73;97.32
64200;BME280;50516;52.272;5.136;2023-04-07T01:42:35;101471.53;;;9.84;97.63
64200;BME280;50516;52.272;5.136;2023-04-07T01:45:02;101472.81;;;9.98;96.26
64200;BME280;50516;52.272;5.136;2023-04-07T01:47:28;101479.19;;;9.82;96.73
64200;BME280;50516;52.272;5.136;2023-04-07T01:49:57;101480.94;;;9.71;97.20
64200;BME280;50516;52.272;5.136;2023-04-07T01:52:25;101476.94;;;9.62;97.62
64200;BME280;50516;52.272;5.136;2023-04-07T01:54:54;101480.19;;;9.59;98.04
64200;BME280;50516;52.272;5.136;2023-04-07T01:57:19;101477.13;;;9.72;97.48
64200;BME280;50516;52.272;5.136;2023-04-07T01:59:45;101488.22;;;9.82;96.45
64200;BME280;50516;52.272;5.136;2023-04-07T02:02:10;101483.50;;;9.78;96.35
64200;BME280;50516;52.272;5.136;2023-04-07T02:04:54;101486.22;;;9.78;96.68
64200;BME280;50516;52.272;5.136;2023-04-07T02:07:37;101480.00;;;9.82;96.60
64200;BME280;50516;52.272;5.136;2023-04-07T02:10:05;101485.47;;;9.82;96.13
64200;BME280;50516;52.272;5.136;2023-04-07T02:12:33;101482.50;;;9.84;96.00
64200;BME280;50516;52.272;5.136;2023-04-07T02:15:01;101484.72;;;9.87;95.86
64200;BME280;50516;52.272;5.136;2023-04-07T02:17:28;101487.28;;;9.94;95.49
64200;BME280;50516;52.272;5.136;2023-04-07T02:19:56;101481.38;;;10.02;95.35
64200;BME280;50516;52.272;5.136;2023-04-07T02:22:25;101485.13;;;9.96;95.26
64200;BME280;50516;52.272;5.136;2023-04-07T02:24:51;101480.06;;;9.87;95.86
64200;BME280;50516;52.272;5.136;2023-04-07T02:27:17;101484.22;;;9.90;96.10
64200;BME280;50516;52.272;5.136;2023-04-07T02:29:42;101484.72;;;9.87;95.86
64200;BME280;50516;52.272;5.136;2023-04-07T02:32:08;101478.75;;;9.90;95.98
64200;BME280;50516;52.272;5.136;2023-04-07T02:34:33;101484.72;;;9.87;96.11
64200;BME280;50516;52.272;5.136;2023-04-07T02:36:58;101490.84;;;9.94;95.39
64200;BME280;50516;52.272;5.136;2023-04-07T02:39:24;101491.84;;;9.88;95.90
64200;BME280;50516;52.272;5.136;2023-04-07T02:41:49;101487.22;;;9.89;95.73
64200;BME280;50516;52.272;5.136;2023-04-07T02:44:15;101490.34;;;9.97;95.67
64200;BME280;50516;52.272;5.136;2023-04-07T02:46:40;101483.78;;;9.98;95.40
64200;BME280;50516;52.272;5.136;2023-04-07T02:49:06;101484.19;;;10.07;94.93
64200;BME280;50516;52.272;5.136;2023-04-07T02:51:31;101482.94;;;9.98;95.31
64200;BME280;50516;52.272;5.136;2023-04-07T02:53:56;101487.03;;;9.95;95.76
64200;BME280;50516;52.272;5.136;2023-04-07T02:56:22;101489.34;;;10.03;95.27
64200;BME280;50516;52.272;5.136;2023-04-07T02:58:47;101479.94;;;9.99;95.30
64200;BME280;50516;52.272;5.136;2023-04-07T03:01:12;101488.34;;;10.10;95.07
64200;BME280;50516;52.272;5.136;2023-04-07T03:03:38;101478.63;;;10.02;94.98
64200;BME280;50516;52.272;5.136;2023-04-07T03:06:04;101489.28;;;9.98;95.30
64200;BME280;50516;52.272;5.136;2023-04-07T03:08:29;101489.53;;;9.97;95.62
64200;BME280;50516;52.272;5.136;2023-04-07T03:10:55;101484.47;;;9.89;95.55
64200;BME280;50516;52.272;5.136;2023-04-07T03:13:20;101488.38;;;9.93;95.57
64200;BME280;50516;52.272;5.136;2023-04-07T03:15:45;101491.81;;;9.66;96.29
64200;BME280;50516;52.272;5.136;2023-04-07T03:18:11;101482.75;;;9.65;96.33
64200;BME280;50516;52.272;5.136;2023-04-07T03:20:37;101484.16;;;9.68;96.39
64200;BME280;50516;52.272;5.136;2023-04-07T03:23:06;101477.44;;;9.76;96.21
64200;BME280;50516;52.272;5.136;2023-04-07T03:25:31;101481.19;;;9.69;96.15
64200;BME280;50516;52.272;5.136;2023-04-07T03:27:56;101482.34;;;9.57;96.26
64200;BME280;50516;52.272;5.136;2023-04-07T03:30:24;101482.75;;;9.48;96.69
64200;BME280;50516;52.272;5.136;2023-04-07T03:32:49;101486.25;;;9.27;96.91
64200;BME280;50516;52.272;5.136;2023-04-07T03:35:15;101481.94;;;9.14;97.21
64200;BME280;50516;52.272;5.136;2023-04-07T03:37:40;101486.59;;;9.30;97.36
64200;BME280;50516;52.272;5.136;2023-04-07T03:40:06;101485.59;;;9.37;97.33
64200;BME280;50516;52.272;5.136;2023-04-07T03:42:31;101487.25;;;9.38;97.54
64200;BME280;50516;52.272;5.136;2023-04-07T03:44:57;101493.63;;;9.09;98.30
64200;BME280;50516;52.272;5.136;2023-04-07T03:47:22;101491.13;;;9.08;98.88
64200;BME280;50516;52.272;5.136;2023-04-07T03:49:47;101505.47;;;8.98;99.00
64200;BME280;50516;52.272;5.136;2023-04-07T03:52:13;101494.06;;;8.89;98.82
64200;BME280;50516;52.272;5.136;2023-04-07T03:54:39;101493.69;;;8.69;99.48
64200;BME280;50516;52.272;5.136;2023-04-07T03:57:05;101501.59;;;8.82;98.98
64200;BME280;50516;52.272;5.136;2023-04-07T03:59:31;101488.41;;;8.79;99.00
64200;BME280;50516;52.272;5.136;2023-04-07T04:01:57;101493.88;;;8.79;98.69
64200;BME280;50516;52.272;5.136;2023-04-07T04:04:22;101494.94;;;8.78;99.08
64200;BME280;50516;52.272;5.136;2023-04-07T04:06:49;101493.16;;;8.72;99.35
64200;BME280;50516;52.272;5.136;2023-04-07T04:09:14;101496.41;;;8.98;98.72
64200;BME280;50516;52.272;5.136;2023-04-07T04:11:43;101493.16;;;9.01;98.14
64200;BME280;50516;52.272;5.136;2023-04-07T04:14:08;101500.97;;;8.92;99.06
64200;BME280;50516;52.272;5.136;2023-04-07T04:16:34;101501.44;;;8.89;98.71
64200;BME280;50516;52.272;5.136;2023-04-07T04:19:02;101503.53;;;8.99;99.08
64200;BME280;50516;52.272;5.136;2023-04-07T04:21:27;101503.84;;;9.14;97.78
64200;BME280;50516;52.272;5.136;2023-04-07T04:23:52;101507.16;;;9.16;97.13
64200;BME280;50516;52.272;5.136;2023-04-07T04:26:18;101511.44;;;8.95;97.47
64200;BME280;50516;52.272;5.136;2023-04-07T04:28:43;101520.56;;;9.01;97.89
64200;BME280;50516;52.272;5.136;2023-04-07T04:31:09;101512.97;;;9.20;96.74
64200;BME280;50516;52.272;5.136;2023-04-07T04:33:34;101514.97;;;9.24;96.39
64200;BME280;50516;52.272;5.136;2023-04-07T04:36:00;101516.47;;;9.32;96.26
64200;BME280;50516;52.272;5.136;2023-04-07T04:38:25;101519.72;;;9.29;95.80
64200;BME280;50516;52.272;5.136;2023-04-07T04:40:51;101515.38;;;9.16;95.86
64200;BME280;50516;52.272;5.136;2023-04-07T04:43:16;101521.69;;;9.17;96.22
64200;BME280;50516;52.272;5.136;2023-04-07T04:45:41;101523.16;;;9.07;95.58
64200;BME280;50516;52.272;5.136;2023-04-07T04:48:07;101528.22;;;9.16;96.08
64200;BME280;50516;52.272;5.136;2023-04-07T04:50:33;101525.63;;;9.09;96.20
64200;BME280;50516;52.272;5.136;2023-04-07T04:52:58;101537.28;;;9.16;95.63
64200;BME280;50516;52.272;5.136;2023-04-07T04:55:23;101534.34;;;9.06;95.91
64200;BME280;50516;52.272;5.136;2023-04-07T04:57:49;101542.47;;;9.01;96.68
64200;BME280;50516;52.272;5.136;2023-04-07T05:00:14;101541.00;;;9.10;96.90
64200;BME280;50516;52.272;5.136;2023-04-07T05:02:40;101537.78;;;9.13;96.58
64200;BME280;50516;52.272;5.136;2023-04-07T05:05:06;101531.41;;;9.24;95.85
64200;BME280;50516;52.272;5.136;2023-04-07T05:07:31;101541.00;;;9.39;96.02
64200;BME280;50516;52.272;5.136;2023-04-07T05:09:57;101537.41;;;9.55;94.98
64200;BME280;50516;52.272;5.136;2023-04-07T05:12:22;101536.34;;;9.56;94.50
64200;BME280;50516;52.272;5.136;2023-04-07T05:14:47;101538.59;;;9.59;94.88
64200;BME280;50516;52.272;5.136;2023-04-07T05:17:12;101546.38;;;9.50;94.78
64200;BME280;50516;52.272;5.136;2023-04-07T05:19:38;101547.50;;;9.49;95.00
64200;BME280;50516;52.272;5.136;2023-04-07T05:22:03;101547.66;;;9.60;94.76
64200;BME280;50516;52.272;5.136;2023-04-07T05:24:29;101546.25;;;9.74;93.70
64200;BME280;50516;52.272;5.136;2023-04-07T05:26:54;101550.56;;;9.53;94.82
64200;BME280;50516;52.272;5.136;2023-04-07T05:29:21;101556.88;;;9.71;94.12
64200;BME280;50516;52.272;5.136;2023-04-07T05:31:46;101554.38;;;9.69;94.08
64200;BME280;50516;52.272;5.136;2023-04-07T05:34:12;101554.38;;;9.69;93.90
64200;BME280;50516;52.272;5.136;2023-04-07T05:36:37;101559.63;;;9.71;94.22
64200;BME280;50516;52.272;5.136;2023-04-07T05:39:02;101559.38;;;9.89;93.60
64200;BME280;50516;52.272;5.136;2023-04-07T05:41:28;101562.38;;;9.71;94.03
64200;BME280;50516;52.272;5.136;2023-04-07T05:43:53;101562.34;;;9.87;93.56
64200;BME280;50516;52.272;5.136;2023-04-07T05:46:18;101572.06;;;9.78;93.60
64200;BME280;50516;52.272;5.136;2023-04-07T05:48:44;101563.34;;;9.81;93.59
64200;BME280;50516;52.272;5.136;2023-04-07T05:51:09;101567.03;;;9.87;93.98
64200;BME280;50516;52.272;5.136;2023-04-07T05:53:34;101572.00;;;9.90;93.34
64200;BME280;50516;52.272;5.136;2023-04-07T05:56:00;101569.91;;;9.97;93.62
64200;BME280;50516;52.272;5.136;2023-04-07T05:58:25;101572.47;;;10.04;93.10
64200;BME280;50516;52.272;5.136;2023-04-07T06:00:52;101572.66;;;9.97;93.23
64200;BME280;50516;52.272;5.136;2023-04-07T06:03:17;101579.38;;;10.07;93.09
64200;BME280;50516;52.272;5.136;2023-04-07T06:05:45;101577.91;;;9.82;93.29
64200;BME280;50516;52.272;5.136;2023-04-07T06:08:10;101578.06;;;9.75;94.27
64200;BME280;50516;52.272;5.136;2023-04-07T06:10:36;101585.28;;;9.81;94.14
64200;BME280;50516;52.272;5.136;2023-04-07T06:13:01;101586.13;;;9.99;93.21
64200;BME280;50516;52.272;5.136;2023-04-07T06:15:26;101588.13;;;10.03;92.86
64200;BME280;50516;52.272;5.136;2023-04-07T06:17:51;101586.19;;;10.04;92.94
64200;BME280;50516;52.272;5.136;2023-04-07T06:20:17;101593.53;;;9.98;92.99
64200;BME280;50516;52.272;5.136;2023-04-07T06:22:44;101586.63;;;9.79;93.96
64200;BME280;50516;52.272;5.136;2023-04-07T06:25:09;101593.47;;;9.93;93.72
64200;BME280;50516;52.272;5.136;2023-04-07T06:27:34;101599.34;;;9.85;93.51
64200;BME280;50516;52.272;5.136;2023-04-07T06:30:00;101595.44;;;9.98;93.27
64200;BME280;50516;52.272;5.136;2023-04-07T06:32:25;101597.09;;;9.99;93.61
64200;BME280;50516;52.272;5.136;2023-04-07T06:34:51;101595.94;;;9.95;93.89
64200;BME280;50516;52.272;5.136;2023-04-07T06:37:16;101598.28;;;10.03;93.42
64200;BME280;50516;52.272;5.136;2023-04-07T06:39:42;101602.66;;;10.04;93.14
64200;BME280;50516;52.272;5.136;2023-04-07T06:42:07;101600.19;;;9.85;93.16
64200;BME280;50516;52.272;5.136;2023-04-07T06:44:33;101609.81;;;9.71;94.54
64200;BME280;50516;52.272;5.136;2023-04-07T06:46:58;101596.09;;;9.88;94.17
64200;BME280;50516;52.272;5.136;2023-04-07T06:49:23;101603.81;;;9.91;93.60
64200;BME280;50516;52.272;5.136;2023-04-07T06:51:49;101610.41;;;9.90;94.28
64200;BME280;50516;52.272;5.136;2023-04-07T06:54:14;101610.75;;;9.94;92.75
64200;BME280;50516;52.272;5.136;2023-04-07T06:56:41;101621.69;;;9.77;93.75
64200;BME280;50516;52.272;5.136;2023-04-07T06:59:06;101618.84;;;9.72;93.78
64200;BME280;50516;52.272;5.136;2023-04-07T07:01:32;101625.94;;;9.67;94.08
64200;BME280;50516;52.272;5.136;2023-04-07T07:03:58;101625.78;;;9.91;93.45
64200;BME280;50516;52.272;5.136;2023-04-07T07:06:24;101636.66;;;9.86;93.43
64200;BME280;50516;52.272;5.136;2023-04-07T07:08:50;101634.41;;;9.83;93.19
64200;BME280;50516;52.272;5.136;2023-04-07T07:11:16;101631.09;;;10.15;92.54
64200;BME280;50516;52.272;5.136;2023-04-07T07:13:41;101634.69;;;9.98;93.36
64200;BME280;50516;52.272;5.136;2023-04-07T07:16:07;101633.66;;;9.87;91.81
64200;BME280;50516;52.272;5.136;2023-04-07T07:18:32;101641.06;;;10.04;92.03
64200;BME280;50516;52.272;5.136;2023-04-07T07:20:57;101640.66;;;9.95;91.26
64200;BME280;50516;52.272;5.136;2023-04-07T07:23:23;101647.13;;;9.89;90.66
64200;BME280;50516;52.272;5.136;2023-04-07T07:25:48;101638.91;;;9.89;89.99
64200;BME280;50516;52.272;5.136;2023-04-07T07:28:13;101647.00;;;10.13;90.17
64200;BME280;50516;52.272;5.136;2023-04-07T07:30:39;101645.66;;;9.98;90.24
64200;BME280;50516;52.272;5.136;2023-04-07T07:33:07;101648.28;;;9.59;89.74
64200;BME280;50516;52.272;5.136;2023-04-07T07:35:32;101662.06;;;9.64;90.46
64200;BME280;50516;52.272;5.136;2023-04-07T07:37:57;101655.19;;;9.79;90.42
64200;BME280;50516;52.272;5.136;2023-04-07T07:40:23;101659.28;;;9.93;89.94
64200;BME280;50516;52.272;5.136;2023-04-07T07:42:48;101660.69;;;9.96;89.28
64200;BME280;50516;52.272;5.136;2023-04-07T07:45:13;101657.78;;;10.02;88.19
64200;BME280;50516;52.272;5.136;2023-04-07T07:47:40;101667.50;;;9.76;88.53
64200;BME280;50516;52.272;5.136;2023-04-07T07:50:06;101664.09;;;9.69;89.35
64200;BME280;50516;52.272;5.136;2023-04-07T07:52:31;101674.56;;;9.89;88.86
64200;BME280;50516;52.272;5.136;2023-04-07T07:54:56;101668.59;;;9.92;88.85
64200;BME280;50516;52.272;5.136;2023-04-07T07:57:22;101668.59;;;9.92;88.26
64200;BME280;50516;52.272;5.136;2023-04-07T07:59:47;101681.13;;;9.88;88.26
64200;BME280;50516;52.272;5.136;2023-04-07T08:02:12;101671.34;;;9.92;88.18
64200;BME280;50516;52.272;5.136;2023-04-07T08:04:38;101685.53;;;9.89;87.82
64200;BME280;50516;52.272;5.136;2023-04-07T08:07:03;101679.09;;;10.29;87.07
64200;BME280;50516;52.272;5.136;2023-04-07T08:09:29;101681.94;;;10.51;87.01
64200;BME280;50516;52.272;5.136;2023-04-07T08:11:54;101679.66;;;10.65;86.59
64200;BME280;50516;52.272;5.136;2023-04-07T08:14:20;101686.91;;;10.71;86.29
64200;BME280;50516;52.272;5.136;2023-04-07T08:16:45;101690.72;;;10.70;86.32
64200;BME280;50516;52.272;5.136;2023-04-07T08:19:11;101691.66;;;10.59;86.56
64200;BME280;50516;52.272;5.136;2023-04-07T08:21:37;101695.38;;;10.70;86.42
64200;BME280;50516;52.272;5.136;2023-04-07T08:24:03;101689.06;;;10.69;86.15
64200;BME280;50516;52.272;5.136;2023-04-07T08:26:29;101695.31;;;10.65;85.62
64200;BME280;50516;52.272;5.136;2023-04-07T08:28:55;101696.22;;;10.70;85.52
64200;BME280;50516;52.272;5.136;2023-04-07T08:31:20;101700.00;;;10.86;85.68
64200;BME280;50516;52.272;5.136;2023-04-07T08:33:46;101704.25;;;10.94;84.55
64200;BME280;50516;52.272;5.136;2023-04-07T08:36:11;101708.38;;;10.74;85.24
64200;BME280;50516;52.272;5.136;2023-04-07T08:38:37;101702.53;;;11.10;84.24
64200;BME280;50516;52.272;5.136;2023-04-07T08:41:25;101711.09;;;11.13;82.67
64200;BME280;50516;52.272;5.136;2023-04-07T08:43:52;101712.75;;;10.92;83.59
64200;BME280;50516;52.272;5.136;2023-04-07T08:46:20;101709.31;;;11.24;83.61
64200;BME280;50516;52.272;5.136;2023-04-07T08:48:50;101701.97;;;11.08;83.26
64200;BME280;50516;52.272;5.136;2023-04-07T08:51:24;101706.69;;;11.35;83.50
64200;BME280;50516;52.272;5.136;2023-04-07T08:53:52;101708.16;;;11.64;82.41
64200;BME280;50516;52.272;5.136;2023-04-07T08:56:19;101716.78;;;11.51;81.02
64200;BME280;50516;52.272;5.136;2023-04-07T08:58:47;101712.06;;;11.24;80.27
64200;BME280;50516;52.272;5.136;2023-04-07T09:01:13;101719.28;;;11.52;80.68
64200;BME280;50516;52.272;5.136;2023-04-07T09:03:41;101715.13;;;11.50;81.13
64200;BME280;50516;52.272;5.136;2023-04-07T09:06:08;101717.94;;;11.55;82.27
64200;BME280;50516;52.272;5.136;2023-04-07T09:08:34;101721.44;;;11.50;81.10
64200;BME280;50516;52.272;5.136;2023-04-07T09:11:01;101714.06;;;11.56;82.38
64200;BME280;50516;52.272;5.136;2023-04-07T09:13:27;101717.53;;;11.46;81.87
64200;BME280;50516;52.272;5.136;2023-04-07T09:15:52;101728.44;;;11.58;80.47
64200;BME280;50516;52.272;5.136;2023-04-07T09:18:18;101726.59;;;11.42;79.63
64200;BME280;50516;52.272;5.136;2023-04-07T09:20:58;101727.53;;;11.08;81.05
64200;BME280;50516;52.272;5.136;2023-04-07T09:23:34;101738.09;;;10.77;79.68
64200;BME280;50516;52.272;5.136;2023-04-07T09:26:00;101731.66;;;10.89;80.44
64200;BME280;50516;52.272;5.136;2023-04-07T09:28:41;101744.28;;;10.90;80.36
64200;BME280;50516;52.272;5.136;2023-04-07T09:31:07;101743.66;;;10.83;80.04
64200;BME280;50516;52.272;5.136;2023-04-07T09:33:33;101739.56;;;10.85;80.00
64200;BME280;50516;52.272;5.136;2023-04-07T09:35:58;101746.13;;;11.23;80.51
64200;BME280;50516;52.272;5.136;2023-04-07T09:38:32;101733.38;;;11.34;79.22
64200;BME280;50516;52.272;5.136;2023-04-07T09:41:08;101732.41;;;11.45;78.51
64200;BME280;50516;52.272;5.136;2023-04-07T09:43:39;101742.16;;;11.14;79.19
64200;BME280;50516;52.272;5.136;2023-04-07T09:46:19;101744.59;;;11.10;79.21
64200;BME280;50516;52.272;5.136;2023-04-07T09:48:45;101751.75;;;11.11;79.91
64200;BME280;50516;52.272;5.136;2023-04-07T09:51:17;101748.28;;;10.99;79.83
64200;BME280;50516;52.272;5.136;2023-04-07T09:56:12;101743.13;;;11.25;79.23
64200;BME280;50516;52.272;5.136;2023-04-07T09:58:38;101735.53;;;11.32;78.18
64200;BME280;50516;52.272;5.136;2023-04-07T10:01:07;101743.69;;;11.27;77.43
64200;BME280;50516;52.272;5.136;2023-04-07T10:03:37;101745.03;;;11.46;78.04
64200;BME280;50516;52.272;5.136;2023-04-07T10:06:04;101752.78;;;11.72;77.25
64200;BME280;50516;52.272;5.136;2023-04-07T10:08:32;101743.25;;;11.57;76.81
64200;BME280;50516;52.272;5.136;2023-04-07T10:10:59;101745.34;;;11.72;77.21
64200;BME280;50516;52.272;5.136;2023-04-07T10:13:27;101748.09;;;11.72;77.08
64200;BME280;50516;52.272;5.136;2023-04-07T10:15:53;101750.03;;;11.94;76.76
64200;BME280;50516;52.272;5.136;2023-04-07T10:18:19;101744.09;;;11.85;76.61
64200;BME280;50516;52.272;5.136;2023-04-07T10:20:48;101753.69;;;11.77;75.95
64200;BME280;50516;52.272;5.136;2023-04-07T10:23:24;101752.72;;;11.66;76.70
64200;BME280;50516;52.272;5.136;2023-04-07T10:25:53;101760.25;;;11.76;75.85
64200;BME280;50516;52.272;5.136;2023-04-07T10:28:22;101759.44;;;11.54;75.26
64200;BME280;50516;52.272;5.136;2023-04-07T10:30:49;101757.31;;;11.61;75.52
64200;BME280;50516;52.272;5.136;2023-04-07T10:33:16;101765.25;;;11.57;74.78
64200;BME280;50516;52.272;5.136;2023-04-07T10:38:26;101767.94;;;11.52;75.03
64200;BME280;50516;52.272;5.136;2023-04-07T10:40:52;101779.72;;;11.69;75.39
64200;BME280;50516;52.272;5.136;2023-04-07T10:43:36;101780.22;;;11.66;74.91
64200;BME280;50516;52.272;5.136;2023-04-07T10:46:02;101783.31;;;11.92;74.66
64200;BME280;50516;52.272;5.136;2023-04-07T10:48:27;101782.47;;;12.19;74.45
64200;BME280;50516;52.272;5.136;2023-04-07T10:53:29;101783.56;;;12.45;73.01
64200;BME280;50516;52.272;5.136;2023-04-07T10:55:56;101775.63;;;12.54;72.05
64200;BME280;50516;52.272;5.136;2023-04-07T10:58:22;101784.50;;;12.61;72.10
64200;BME280;50516;52.272;5.136;2023-04-07T11:03:34;101779.13;;;12.44;72.81
64200;BME280;50516;52.272;5.136;2023-04-07T11:06:13;101792.19;;;12.27;72.57
64200;BME280;50516;52.272;5.136;2023-04-07T11:08:40;101790.06;;;12.34;72.60
64200;BME280;50516;52.272;5.136;2023-04-07T11:11:07;101786.56;;;12.76;71.65
64200;BME280;50516;52.272;5.136;2023-04-07T11:14:02;101794.91;;;12.86;71.50
64200;BME280;50516;52.272;5.136;2023-04-07T11:16:39;101790.28;;;12.59;71.14
64200;BME280;50516;52.272;5.136;2023-04-07T11:19:05;101793.69;;;12.39;73.24
64200;BME280;50516;52.272;5.136;2023-04-07T11:21:30;101793.88;;;12.28;73.74
64200;BME280;50516;52.272;5.136;2023-04-07T11:23:56;101793.75;;;12.17;74.64
64200;BME280;50516;52.272;5.136;2023-04-07T11:26:21;101792.44;;;12.25;74.26
64200;BME280;50516;52.272;5.136;2023-04-07T11:28:49;101790.84;;;12.02;75.23
64200;BME280;50516;52.272;5.136;2023-04-07T11:31:27;101796.47;;;12.77;73.78
64200;BME280;50516;52.272;5.136;2023-04-07T11:33:56;101800.44;;;12.91;71.91
64200;BME280;50516;52.272;5.136;2023-04-07T11:36:34;101793.38;;;13.06;72.88
64200;BME280;50516;52.272;5.136;2023-04-07T11:39:00;101799.44;;;13.08;72.39
64200;BME280;50516;52.272;5.136;2023-04-07T11:41:28;101800.25;;;12.66;72.49
64200;BME280;50516;52.272;5.136;2023-04-07T11:44:08;101803.41;;;12.47;73.71
64200;BME280;50516;52.272;5.136;2023-04-07T11:46:34;101805.00;;;12.75;74.84
64200;BME280;50516;52.272;5.136;2023-04-07T11:49:11;101806.88;;;13.02;73.96
64200;BME280;50516;52.272;5.136;2023-04-07T11:51:36;101815.69;;;13.04;73.70
64200;BME280;50516;52.272;5.136;2023-04-07T11:54:02;101804.13;;;12.65;73.15
64200;BME280;50516;52.272;5.136;2023-04-07T11:56:28;101815.41;;;12.36;75.34
64200;BME280;50516;52.272;5.136;2023-04-07T11:58:54;101816.03;;;12.43;75.77
64200;BME280;50516;52.272;5.136;2023-04-07T12:01:21;101816.75;;;12.06;75.75
64200;BME280;50516;52.272;5.136;2023-04-07T12:04:02;101813.81;;;11.91;76.06
64200;BME280;50516;52.272;5.136;2023-04-07T12:06:34;101820.59;;;11.61;76.77
64200;BME280;50516;52.272;5.136;2023-04-07T12:09:03;101830.53;;;11.45;78.30
64200;BME280;50516;52.272;5.136;2023-04-07T12:11:30;101832.63;;;11.77;77.69
64200;BME280;50516;52.272;5.136;2023-04-07T12:13:56;101824.28;;;11.49;77.92
64200;BME280;50516;52.272;5.136;2023-04-07T12:16:22;101837.44;;;11.64;78.81
64200;BME280;50516;52.272;5.136;2023-04-07T12:18:47;101823.66;;;11.42;80.06
64200;BME280;50516;52.272;5.136;2023-04-07T12:21:13;101833.53;;;11.21;80.15
64200;BME280;50516;52.272;5.136;2023-04-07T12:23:38;101836.16;;;11.33;80.57
64200;BME280;50516;52.272;5.136;2023-04-07T12:26:04;101832.63;;;11.55;79.36
64200;BME280;50516;52.272;5.136;2023-04-07T12:28:29;101835.00;;;11.90;78.91
64200;BME280;50516;52.272;5.136;2023-04-07T12:30:54;101842.88;;;11.81;78.58
64200;BME280;50516;52.272;5.136;2023-04-07T12:33:20;101840.16;;;11.86;77.97
64200;BME280;50516;52.272;5.136;2023-04-07T12:35:46;101846.22;;;12.05;77.95
64200;BME280;50516;52.272;5.136;2023-04-07T12:38:11;101848.47;;;12.36;77.66
64200;BME280;50516;52.272;5.136;2023-04-07T12:40:37;101847.88;;;12.07;77.77
64200;BME280;50516;52.272;5.136;2023-04-07T12:43:03;101853.03;;;11.59;79.90
64200;BME280;50516;52.272;5.136;2023-04-07T12:45:29;101860.59;;;11.91;79.25
64200;BME280;50516;52.272;5.136;2023-04-07T12:47:55;101861.03;;;11.82;78.28
64200;BME280;50516;52.272;5.136;2023-04-07T12:50:21;101855.13;;;12.13;77.79
64200;BME280;50516;52.272;5.136;2023-04-07T12:52:46;101852.72;;;12.49;75.94
64200;BME280;50516;52.272;5.136;2023-04-07T12:55:12;101862.50;;;12.62;75.78
64200;BME280;50516;52.272;5.136;2023-04-07T12:57:38;101856.63;;;12.85;75.27
64200;BME280;50516;52.272;5.136;2023-04-07T13:00:04;101856.34;;;12.54;75.46
64200;BME280;50516;52.272;5.136;2023-04-07T13:02:30;101864.69;;;12.32;77.64
64200;BME280;50516;52.272;5.136;2023-04-07T13:04:55;101863.03;;;12.09;77.94
64200;BME280;50516;52.272;5.136;2023-04-07T13:07:21;101865.22;;;12.07;78.16
64200;BME280;50516;52.272;5.136;2023-04-07T13:09:46;101858.84;;;12.01;79.49
64200;BME280;50516;52.272;5.136;2023-04-07T13:12:11;101865.78;;;12.09;78.93